createdAt,value
2023-10-29T00:02:20.850Z,97110.50
2023-10-29T00:04:48.751Z,97122.78
2023-10-29T00:07:16.525Z,97119.66
2023-10-29T00:09:44.136Z,97111.28
2023-10-29T00:12:11.742Z,97109.16
2023-10-29T00:14:39.321Z,97119.81
2023-10-29T00:17:09.081Z,97097.88
2023-10-29T00:19:36.753Z,97108.56
2023-10-29T00:22:04.359Z,97099.91
2023-10-29T00:24:32.025Z,97103.28
2023-10-29T00:26:59.867Z,97095.16
2023-10-29T00:29:28.163Z,97077.84
2023-10-29T00:31:55.824Z,97075.25
2023-10-29T00:34:24.821Z,97077.34
2023-10-29T00:36:52.437Z,97086.97
2023-10-29T00:39:20.230Z,97077.31
2023-10-29T00:41:47.869Z,97067.13
2023-10-29T00:44:15.491Z,97066.34
2023-10-29T00:46:43.347Z,97061.91
2023-10-29T00:49:11.428Z,97061.13
2023-10-29T00:51:40.418Z,97068.13
2023-10-29T00:54:08.446Z,97055.34
2023-10-29T00:56:36.294Z,97053.72
2023-10-29T00:59:04.014Z,97053.22
2023-10-29T01:01:31.966Z,97048.22
2023-10-29T01:04:00.699Z,97039.16
2023-10-29T01:06:28.686Z,97038.09
2023-10-29T01:08:57.896Z,97038.09
2023-10-29T01:11:25.611Z,97028.41
2023-10-29T01:13:53.298Z,97031.25
2023-10-29T01:16:20.955Z,97028.06
2023-10-29T01:18:48.610Z,97015.56
2023-10-29T01:21:17.270Z,97021.31
2023-10-29T01:23:44.971Z,97009.75
2023-10-29T01:26:13.969Z,97008.69
2023-10-29T01:28:41.538Z,97005.25
2023-10-29T01:31:09.373Z,97009.94
2023-10-29T01:33:37.066Z,97014.59
2023-10-29T01:36:04.938Z,96998.31
2023-10-29T01:38:32.713Z,96995.44
2023-10-29T01:41:00.447Z,97003.00
2023-10-29T01:43:29.406Z,96998.28
2023-10-29T01:45:57.186Z,96991.47
2023-10-29T01:48:25.447Z,96986.53
2023-10-29T01:50:53.173Z,96989.66
2023-10-29T01:53:21.391Z,96986.53
2023-10-29T01:55:49.033Z,96979.75
2023-10-29T01:58:16.648Z,96993.09
2023-10-29T02:00:45.540Z,96976.06
2023-10-29T02:03:13.585Z,96973.94
2023-10-29T02:05:41.417Z,96969.78
2023-10-29T02:08:09.123Z,96963.50
2023-10-29T02:10:36.728Z,96970.28
2023-10-29T02:13:04.425Z,96983.63
2023-10-29T02:15:32.114Z,96982.31
2023-10-29T02:18:01.197Z,96982.31
2023-10-29T02:20:28.980Z,96986.66
2023-10-29T02:22:58.009Z,96985.88
2023-10-29T02:25:25.674Z,96986.97
2023-10-29T02:27:53.285Z,96988.50
2023-10-29T02:30:20.960Z,96978.25
2023-10-29T02:32:48.620Z,96984.91
2023-10-29T02:35:16.436Z,96979.38
2023-10-29T02:37:44.251Z,96979.09
2023-10-29T02:40:13.881Z,96952.19
2023-10-29T02:42:41.467Z,96984.69
2023-10-29T02:45:09.668Z,96986.75
2023-10-29T02:47:37.554Z,97010.28
2023-10-29T02:50:06.018Z,97068.28
2023-10-29T02:52:33.737Z,97126.91
2023-10-29T02:55:01.327Z,97139.06
2023-10-29T02:57:31.661Z,97150.47
2023-10-29T03:00:01.415Z,97144.91
2023-10-29T03:02:29.145Z,97151.81
2023-10-29T03:04:56.833Z,97156.25
2023-10-29T03:07:24.427Z,97144.81
2023-10-29T03:09:52.803Z,97129.97
2023-10-29T03:12:20.700Z,97153.44
2023-10-29T03:14:49.943Z,97158.72
2023-10-29T03:17:17.765Z,97173.06
2023-10-29T03:19:45.649Z,97150.16
2023-10-29T03:22:13.354Z,97130.84
2023-10-29T03:24:40.967Z,97139.94
2023-10-29T03:27:09.209Z,97130.00
2023-10-29T03:29:36.774Z,97126.34
2023-10-29T03:32:06.033Z,97122.97
2023-10-29T03:34:33.614Z,97123.34
2023-10-29T03:37:01.361Z,97122.38
2023-10-29T03:39:30.682Z,97109.31
2023-10-29T03:41:58.378Z,97112.13
2023-10-29T03:44:26.049Z,97111.53
2023-10-29T03:46:53.776Z,97119.63
2023-10-29T03:49:22.755Z,97108.09
2023-10-29T03:51:50.335Z,97102.81
2023-10-29T03:54:17.939Z,97111.91
2023-10-29T03:56:45.665Z,97099.78
2023-10-29T03:59:13.308Z,97089.03
2023-10-29T04:01:41.010Z,97096.59
2023-10-29T04:04:09.314Z,97090.03
2023-10-29T04:06:38.309Z,97060.63
2023-10-29T04:09:06.642Z,97083.03
2023-10-29T04:11:35.110Z,97087.75
2023-10-29T04:14:02.829Z,97098.88
2023-10-29T04:16:30.443Z,97089.16
2023-10-29T04:18:58.062Z,97083.94
2023-10-29T04:21:25.687Z,97091.50
2023-10-29T04:23:54.735Z,97084.13
2023-10-29T04:26:22.407Z,97083.03
2023-10-29T04:28:50.148Z,97066.81
2023-10-29T04:31:17.910Z,97088.69
2023-10-29T04:33:46.340Z,97084.25
2023-10-29T04:36:19.746Z,97089.75
2023-10-29T04:38:47.465Z,97100.16
2023-10-29T04:41:16.468Z,97099.91
2023-10-29T04:43:44.104Z,97103.78
2023-10-29T04:46:12.683Z,97127.88
2023-10-29T04:48:40.998Z,97147.25
2023-10-29T04:51:08.696Z,97158.75
2023-10-29T04:53:36.334Z,97164.50
2023-10-29T04:56:04.757Z,97202.66
2023-10-29T04:58:33.997Z,97233.41
2023-10-29T05:01:01.881Z,97280.28
2023-10-29T05:03:29.649Z,97339.13
2023-10-29T05:05:57.470Z,97394.25
2023-10-29T05:08:25.172Z,97462.03
2023-10-29T05:10:52.818Z,97541.03
2023-10-29T05:13:20.398Z,97591.25
2023-10-29T05:15:49.403Z,97624.22
2023-10-29T05:18:17.045Z,97639.69
2023-10-29T05:20:44.945Z,97670.28
2023-10-29T05:23:12.666Z,97679.16
2023-10-29T05:25:40.872Z,97688.63
2023-10-29T05:28:08.496Z,97704.03
2023-10-29T05:30:36.278Z,97730.44
2023-10-29T05:33:05.430Z,97774.38
2023-10-29T05:35:33.111Z,97776.47
2023-10-29T05:38:01.025Z,97759.22
2023-10-29T05:40:30.033Z,97766.28
2023-10-29T05:42:57.673Z,97774.38
2023-10-29T05:45:25.444Z,97778.56
2023-10-29T05:47:53.135Z,97771.50
2023-10-29T05:50:23.539Z,97764.94
2023-10-29T05:52:51.187Z,97759.22
2023-10-29T05:55:20.021Z,97813.34
2023-10-29T05:57:47.766Z,97819.38
2023-10-29T06:00:16.390Z,97837.66
2023-10-29T06:02:44.208Z,97857.53
2023-10-29T06:05:11.986Z,97876.38
2023-10-29T06:07:44.860Z,97912.72
2023-10-29T06:10:13.058Z,97949.06
2023-10-29T06:12:40.686Z,97962.16
2023-10-29T06:15:10.303Z,97968.13
2023-10-29T06:17:38.210Z,97957.94
2023-10-29T06:20:06.520Z,97962.91
2023-10-29T06:22:34.692Z,97978.31
2023-10-29T06:25:03.655Z,97985.06
2023-10-29T06:27:31.291Z,97973.53
2023-10-29T06:29:59.046Z,97976.34
2023-10-29T06:32:26.746Z,97956.38
2023-10-29T06:34:54.364Z,97983.19
2023-10-29T06:37:22.019Z,98007.19
2023-10-29T06:39:49.615Z,98005.56
2023-10-29T06:42:18.608Z,97978.41
2023-10-29T06:44:49.434Z,97965.09
2023-10-29T06:47:17.225Z,97970.31
2023-10-29T06:49:44.912Z,97962.97
2023-10-29T06:52:12.576Z,97957.22
2023-10-29T06:54:40.514Z,97949.88
2023-10-29T06:57:08.261Z,97957.75
2023-10-29T06:59:37.268Z,97970.75
2023-10-29T07:02:04.835Z,97995.56
2023-10-29T07:04:32.527Z,98009.97
2023-10-29T07:07:00.355Z,98020.44
2023-10-29T07:09:28.075Z,98043.91
2023-10-29T07:11:57.021Z,98046.56
2023-10-29T07:14:24.817Z,98053.88
2023-10-29T07:16:53.745Z,98058.56
2023-10-29T07:19:21.410Z,98061.44
2023-10-29T07:21:48.997Z,98052.25
2023-10-29T07:24:16.665Z,98041.31
2023-10-29T07:26:44.410Z,98046.34
2023-10-29T07:29:12.764Z,98035.34
2023-10-29T07:31:40.364Z,98030.91
2023-10-29T07:34:09.547Z,98033.91
2023-10-29T07:36:37.242Z,98046.09
2023-10-29T07:39:05.106Z,98060.81
2023-10-29T07:41:32.943Z,98058.88
2023-10-29T07:44:00.616Z,98080.69
2023-10-29T07:46:28.206Z,98097.88
2023-10-29T07:48:56.536Z,98121.41
2023-10-29T07:51:25.504Z,98146.75
2023-10-29T07:53:53.155Z,98148.66
2023-10-29T07:56:22.115Z,98150.16
2023-10-29T07:58:50.074Z,98165.91
2023-10-29T08:01:18.473Z,98174.25
2023-10-29T08:03:47.179Z,98183.47
2023-10-29T08:06:15.199Z,98180.44
2023-10-29T08:08:44.226Z,98193.28
2023-10-29T08:11:18.968Z,98212.19
2023-10-29T08:13:46.679Z,98236.94
2023-10-29T08:16:14.817Z,98262.38
2023-10-29T08:18:42.810Z,98291.31
2023-10-29T08:21:10.610Z,98307.91
2023-10-29T08:23:38.523Z,98305.44
2023-10-29T08:26:07.650Z,98315.91
2023-10-29T08:28:37.308Z,98314.03
2023-10-29T08:31:05.483Z,98324.75
2023-10-29T08:33:33.510Z,98319.75
2023-10-29T08:36:01.267Z,98345.22
2023-10-29T08:38:29.133Z,98395.19
2023-10-29T08:40:57.266Z,98416.59
2023-10-29T08:43:26.887Z,98441.41
2023-10-29T08:45:55.304Z,98462.06
2023-10-29T08:48:23.443Z,98479.25
2023-10-29T08:50:51.186Z,98465.47
2023-10-29T08:53:18.968Z,98485.13
2023-10-29T08:55:46.970Z,98510.09
2023-10-29T08:58:14.584Z,98533.88
2023-10-29T09:00:46.791Z,98564.41
2023-10-29T09:03:15.825Z,98567.88
2023-10-29T09:05:44.686Z,98573.16
2023-10-29T09:08:12.963Z,98603.22
2023-10-29T09:10:44.426Z,98620.13
2023-10-29T09:13:12.268Z,98617.59
2023-10-29T09:15:39.982Z,98655.81
2023-10-29T09:18:11.353Z,98669.69
2023-10-29T09:20:40.088Z,98689.16
2023-10-29T09:23:07.870Z,98714.53
2023-10-29T09:25:35.484Z,98728.41
2023-10-29T09:28:06.172Z,98724.78
2023-10-29T09:30:34.149Z,98761.50
2023-10-29T09:33:02.642Z,98767.91
2023-10-29T09:35:32.010Z,98782.34
2023-10-29T09:37:59.742Z,98813.91
2023-10-29T09:40:27.405Z,98819.59
2023-10-29T09:42:55.764Z,98839.13
2023-10-29T09:45:25.002Z,98846.72
2023-10-29T09:47:53.970Z,98856.97
2023-10-29T09:50:22.945Z,98872.53
2023-10-29T09:52:52.312Z,98876.59
2023-10-29T09:55:20.209Z,98856.56
2023-10-29T09:57:47.942Z,98863.63
2023-10-29T10:00:16.519Z,98887.19
2023-10-29T10:02:53.865Z,98885.03
2023-10-29T10:05:22.566Z,98893.41
2023-10-29T10:07:50.530Z,98873.31
2023-10-29T10:10:20.653Z,98895.59
2023-10-29T10:12:49.277Z,98895.44
2023-10-29T10:15:17.763Z,98910.34
2023-10-29T10:17:50.254Z,98918.06
2023-10-29T10:20:21.827Z,98932.03
2023-10-29T10:22:56.955Z,98931.31
2023-10-29T10:25:26.422Z,98926.88
2023-10-29T10:27:54.943Z,98940.03
2023-10-29T10:30:26.280Z,98929.16
2023-10-29T10:32:54.170Z,98928.22
2023-10-29T10:35:22.039Z,98922.47
2023-10-29T10:37:56.232Z,98927.56
2023-10-29T10:40:24.455Z,98955.72
2023-10-29T10:42:56.927Z,98971.84
2023-10-29T10:45:27.567Z,98998.69
2023-10-29T10:47:57.157Z,99015.13
2023-10-29T10:50:25.157Z,99009.28
2023-10-29T10:52:53.357Z,99005.31
2023-10-29T10:55:41.392Z,98997.56
2023-10-29T10:58:14.362Z,99010.41
2023-10-29T11:00:42.347Z,99053.66
2023-10-29T11:03:25.136Z,99086.06
2023-10-29T11:05:54.122Z,99112.69
2023-10-29T11:08:22.460Z,99115.47
2023-10-29T11:10:50.168Z,99113.00
2023-10-29T11:13:22.456Z,99102.53
2023-10-29T11:15:50.517Z,99089.56
2023-10-29T11:18:28.343Z,99088.31
2023-10-29T11:21:00.825Z,99066.22
2023-10-29T11:23:29.218Z,99070.81
2023-10-29T11:26:15.661Z,99095.28
2023-10-29T11:28:46.184Z,99080.44
2023-10-29T11:31:14.760Z,99075.66
2023-10-29T11:33:43.755Z,99082.19
2023-10-29T11:36:39.154Z,99072.81
2023-10-29T11:39:39.677Z,99057.88
2023-10-29T11:42:25.914Z,99045.41
2023-10-29T11:45:22.810Z,99036.63
2023-10-29T11:48:08.184Z,99015.66
2023-10-29T11:50:36.821Z,99018.00
2023-10-29T11:53:04.727Z,99023.88
2023-10-29T11:55:39.460Z,99022.75
2023-10-29T11:58:07.688Z,99014.09
2023-10-29T12:00:40.725Z,99019.63
2023-10-29T12:03:09.708Z,99002.78
2023-10-29T12:05:38.006Z,99008.25
2023-10-29T12:08:06.293Z,99029.28
2023-10-29T12:10:34.766Z,99020.63
2023-10-29T12:13:02.506Z,99030.88
2023-10-29T12:15:30.303Z,99032.69
2023-10-29T12:17:59.468Z,99030.78
2023-10-29T12:20:30.157Z,99041.88
2023-10-29T12:22:58.745Z,99044.06
2023-10-29T12:25:26.781Z,99037.56
2023-10-29T12:27:54.974Z,99016.72
2023-10-29T12:30:35.179Z,99007.38
2023-10-29T12:33:23.733Z,99013.78
2023-10-29T12:35:53.661Z,99026.75
2023-10-29T12:38:21.844Z,98997.13
2023-10-29T12:41:06.666Z,98994.25
2023-10-29T12:43:38.408Z,99002.03
2023-10-29T12:46:06.878Z,99008.16
2023-10-29T12:48:36.458Z,99002.16
2023-10-29T12:51:04.443Z,99010.69
2023-10-29T12:53:33.295Z,99007.50
2023-10-29T12:56:01.735Z,99009.72
2023-10-29T12:58:30.423Z,99013.53
2023-10-29T13:01:01.695Z,99013.09
2023-10-29T13:03:29.480Z,99010.91
2023-10-29T13:05:59.737Z,99004.88
2023-10-29T13:08:27.475Z,99004.44
2023-10-29T13:10:55.340Z,99000.63
2023-10-29T13:13:24.874Z,98992.41
2023-10-29T13:15:53.147Z,98992.41
2023-10-29T13:18:21.194Z,98991.78
2023-10-29T13:20:49.392Z,98982.00
2023-10-29T13:23:18.484Z,98981.56
2023-10-29T13:25:46.095Z,98975.22
2023-10-29T13:28:13.766Z,98971.63
2023-10-29T13:30:41.555Z,98966.84
2023-10-29T13:33:10.735Z,98962.50
2023-10-29T13:35:39.987Z,98956.88
2023-10-29T13:38:09.680Z,98942.50
2023-10-29T13:40:40.304Z,98944.88
2023-10-29T13:43:08.187Z,98952.75
2023-10-29T13:45:35.811Z,98957.34
2023-10-29T13:48:05.560Z,98952.44
2023-10-29T13:50:33.406Z,98963.22
2023-10-29T13:53:01.086Z,98954.78
2023-10-29T13:55:28.653Z,98954.00
2023-10-29T13:58:00.060Z,98950.13
2023-10-29T14:00:27.830Z,98948.28
2023-10-29T14:02:58.102Z,98943.53
2023-10-29T14:05:26.250Z,98935.28
2023-10-29T14:07:55.457Z,98914.00
2023-10-29T14:10:23.719Z,98882.25
2023-10-29T14:12:51.358Z,98850.44
2023-10-29T14:15:20.505Z,98839.28
2023-10-29T14:17:48.211Z,98852.69
2023-10-29T14:20:15.968Z,98850.38
2023-10-29T14:22:43.872Z,98862.13
2023-10-29T14:25:11.839Z,98849.34
2023-10-29T14:27:39.519Z,98843.09
2023-10-29T14:30:08.147Z,98846.47
2023-10-29T14:32:37.447Z,98859.09
2023-10-29T14:35:05.832Z,98866.06
2023-10-29T14:37:33.532Z,98850.53
2023-10-29T14:40:01.208Z,98836.25
2023-10-29T14:42:30.057Z,98832.69
2023-10-29T14:44:57.802Z,98844.03
2023-10-29T14:47:25.476Z,98844.50
2023-10-29T14:49:54.499Z,98843.09
2023-10-29T14:52:22.275Z,98836.75
2023-10-29T14:54:50.247Z,98835.50
2023-10-29T14:57:29.013Z,98840.22
2023-10-29T14:59:57.626Z,98838.50
2023-10-29T15:02:25.523Z,98829.22
2023-10-29T15:04:56.570Z,98823.75
2023-10-29T15:07:24.285Z,98815.19
2023-10-29T15:09:52.405Z,98813.75
2023-10-29T15:12:20.575Z,98821.28
2023-10-29T15:14:49.033Z,98824.16
2023-10-29T15:17:18.094Z,98812.25
2023-10-29T15:19:45.777Z,98815.03
2023-10-29T15:22:14.839Z,98811.84
2023-10-29T15:24:42.522Z,98813.84
2023-10-29T15:27:10.278Z,98818.28
2023-10-29T15:29:37.953Z,98804.16
2023-10-29T15:32:05.784Z,98797.75
2023-10-29T15:34:33.510Z,98778.06
2023-10-29T15:37:01.173Z,98773.88
2023-10-29T15:39:31.508Z,98756.75
2023-10-29T15:42:00.227Z,98751.88
2023-10-29T15:44:27.880Z,98748.13
2023-10-29T15:46:55.519Z,98731.88
2023-10-29T15:49:24.619Z,98736.88
2023-10-29T15:51:52.205Z,98721.88
2023-10-29T15:54:21.639Z,98721.09
2023-10-29T15:56:51.964Z,98712.94
2023-10-29T15:59:21.112Z,98702.22
2023-10-29T16:01:48.761Z,98677.69
2023-10-29T16:04:16.936Z,98656.97
2023-10-29T16:06:44.721Z,98641.09
2023-10-29T16:09:12.781Z,98606.19
2023-10-29T16:11:40.492Z,98594.72
2023-10-29T16:14:09.558Z,98558.13
2023-10-29T16:16:37.376Z,98536.41
2023-10-29T16:19:05.514Z,98511.78
2023-10-29T16:21:33.248Z,98486.41
2023-10-29T16:24:00.899Z,98457.66
2023-10-29T16:26:28.602Z,98417.25
2023-10-29T16:28:56.346Z,98364.78
2023-10-29T16:31:25.390Z,98329.22
2023-10-29T16:33:53.204Z,98277.47
2023-10-29T16:36:20.913Z,98243.28
2023-10-29T16:38:48.714Z,98211.91
2023-10-29T16:41:17.158Z,98181.13
2023-10-29T16:43:48.410Z,98175.16
2023-10-29T16:46:18.827Z,98146.66
2023-10-29T16:48:48.058Z,98121.09
2023-10-29T16:51:15.890Z,98084.59
2023-10-29T16:53:43.545Z,98063.44
2023-10-29T16:56:12.609Z,98035.47
2023-10-29T16:58:41.487Z,98006.91
2023-10-29T17:01:11.863Z,98004.31
2023-10-29T17:03:39.663Z,98022.16
2023-10-29T17:06:09.105Z,98051.94
2023-10-29T17:08:36.815Z,98139.59
2023-10-29T17:11:04.666Z,98260.38
2023-10-29T17:13:32.294Z,98277.78
2023-10-29T17:16:00.542Z,98259.63
2023-10-29T17:18:28.598Z,98275.75
2023-10-29T17:20:58.123Z,98286.13
2023-10-29T17:23:27.628Z,98294.97
2023-10-29T17:25:56.120Z,98299.38
2023-10-29T17:28:23.751Z,98307.25
2023-10-29T17:30:51.400Z,98289.50
2023-10-29T17:33:19.642Z,98285.94
2023-10-29T17:35:47.455Z,98291.97
2023-10-29T17:38:15.076Z,98299.06
2023-10-29T17:40:44.142Z,98315.50
2023-10-29T17:43:12.305Z,98323.97
2023-10-29T17:45:40.058Z,98359.25
2023-10-29T17:48:08.135Z,98398.06
2023-10-29T17:50:36.031Z,98359.19
2023-10-29T17:53:03.985Z,98277.72
2023-10-29T17:55:31.676Z,98161.97
2023-10-29T17:58:01.021Z,98136.09
2023-10-29T18:00:29.611Z,98094.34
2023-10-29T18:02:57.567Z,98075.75
2023-10-29T18:05:25.361Z,98036.28
2023-10-29T18:07:53.100Z,97994.50
2023-10-29T18:10:20.767Z,97978.06
2023-10-29T18:12:48.356Z,97971.44
2023-10-29T18:15:17.480Z,97969.72
2023-10-29T18:17:45.172Z,97982.25
2023-10-29T18:20:13.595Z,97981.56
2023-10-29T18:22:41.266Z,97980.94
2023-10-29T18:25:09.430Z,97980.03
2023-10-29T18:27:39.581Z,97975.59
2023-10-29T18:30:09.228Z,97948.50
2023-10-29T18:32:38.366Z,97973.34
2023-10-29T18:35:06.371Z,97961.06
2023-10-29T18:37:34.070Z,97942.88
2023-10-29T18:40:01.781Z,97933.84
2023-10-29T18:42:29.417Z,97926.22
2023-10-29T18:44:57.138Z,97917.91
2023-10-29T18:47:24.947Z,97914.28
2023-10-29T18:49:54.068Z,97918.47
2023-10-29T18:52:21.713Z,97928.50
2023-10-29T18:54:49.439Z,97939.22
2023-10-29T18:57:19.050Z,97967.47
2023-10-29T18:59:46.894Z,97998.84
2023-10-29T19:02:14.641Z,98043.31
2023-10-29T19:04:42.620Z,98083.22
2023-10-29T19:07:11.672Z,98114.78
2023-10-29T19:09:39.440Z,98146.03
2023-10-29T19:12:07.345Z,98185.34
2023-10-29T19:14:37.171Z,98216.16
2023-10-29T19:17:09.501Z,98258.22
2023-10-29T19:19:37.912Z,98301.88
2023-10-29T19:22:05.607Z,98329.88
2023-10-29T19:24:34.745Z,98374.38
2023-10-29T19:27:02.730Z,98405.06
2023-10-29T19:29:30.432Z,98431.06
2023-10-29T19:31:58.838Z,98439.44
2023-10-29T19:34:28.364Z,98434.44
2023-10-29T19:36:56.063Z,98409.44
2023-10-29T19:39:23.888Z,98463.31
2023-10-29T19:41:53.012Z,98485.75
2023-10-29T19:44:23.337Z,98494.91
2023-10-29T19:46:52.186Z,98523.84
2023-10-29T19:49:20.313Z,98510.97
2023-10-29T19:51:48.028Z,98562.44
2023-10-29T19:54:16.136Z,98594.69
2023-10-29T19:56:43.786Z,98608.53
2023-10-29T19:59:12.854Z,98611.59
2023-10-29T20:01:40.506Z,98608.75
2023-10-29T20:04:08.353Z,98616.94
2023-10-29T20:06:36.130Z,98635.19
2023-10-29T20:09:04.353Z,98621.59
2023-10-29T20:11:31.994Z,98617.81
2023-10-29T20:14:00.616Z,98616.78
2023-10-29T20:16:29.841Z,98628.59
2023-10-29T20:18:58.758Z,98622.78
2023-10-29T20:21:27.967Z,98613.94
2023-10-29T20:23:55.813Z,98625.19
2023-10-29T20:26:25.123Z,98621.78
2023-10-29T20:28:53.287Z,98620.16
2023-10-29T20:31:21.773Z,98631.50
2023-10-29T20:33:51.476Z,98651.44
2023-10-29T20:36:21.567Z,98666.44
2023-10-29T20:38:49.381Z,98678.47
2023-10-29T20:41:17.136Z,98687.53
2023-10-29T20:43:44.848Z,98693.91
2023-10-29T20:46:12.617Z,98720.78
2023-10-29T20:48:40.398Z,98723.94
2023-10-29T20:51:09.488Z,98762.66
2023-10-29T20:53:37.173Z,98793.88
2023-10-29T20:56:06.409Z,98816.66
2023-10-29T20:58:34.025Z,98829.28
2023-10-29T21:01:03.525Z,98854.22
2023-10-29T21:03:31.278Z,98865.81
2023-10-29T21:05:59.542Z,98894.06
2023-10-29T21:08:29.033Z,98903.38
2023-10-29T21:11:02.184Z,98926.84
2023-10-29T21:13:29.959Z,98956.25
2023-10-29T21:16:01.130Z,98979.19
2023-10-29T21:18:30.357Z,98999.22
2023-10-29T21:20:58.491Z,99003.53
2023-10-29T21:23:32.029Z,99016.94
2023-10-29T21:26:00.263Z,99024.56
2023-10-29T21:28:27.958Z,99035.28
2023-10-29T21:30:55.886Z,99020.63
2023-10-29T21:33:23.786Z,99027.34
2023-10-29T21:35:52.095Z,99008.72
2023-10-29T21:38:19.889Z,98994.72
2023-10-29T21:40:49.018Z,98994.06
2023-10-29T21:43:16.798Z,99006.91
2023-10-29T21:45:44.533Z,99035.00
2023-10-29T21:48:12.393Z,99045.03
2023-10-29T21:50:42.153Z,99055.25
2023-10-29T21:53:10.416Z,99082.06
2023-10-29T21:55:38.226Z,99103.22
2023-10-29T21:58:10.148Z,99126.84
2023-10-29T22:00:38.122Z,99129.59
2023-10-29T22:03:06.388Z,99144.53
2023-10-29T22:05:34.180Z,99150.31
2023-10-29T22:08:02.002Z,99163.50
2023-10-29T22:10:29.771Z,99178.00
2023-10-29T22:12:57.419Z,99189.44
2023-10-29T22:15:29.162Z,99200.69
2023-10-29T22:17:57.284Z,99207.94
2023-10-29T22:20:25.443Z,99219.59
2023-10-29T22:22:53.214Z,99229.97
2023-10-29T22:25:20.908Z,99226.69
2023-10-29T22:27:48.550Z,99222.19
2023-10-29T22:30:16.271Z,99217.34
2023-10-29T22:32:45.698Z,99220.22
2023-10-29T22:35:13.460Z,99222.47
2023-10-29T22:37:41.161Z,99222.47
2023-10-29T22:40:09.515Z,99222.63
2023-10-29T22:42:37.299Z,99222.25
2023-10-29T22:45:05.208Z,99227.41
2023-10-29T22:47:32.946Z,99233.03
2023-10-29T22:50:02.409Z,99229.63
2023-10-29T22:52:30.019Z,99229.50
2023-10-29T22:54:57.648Z,99221.75
2023-10-29T22:57:25.493Z,99218.16
2023-10-29T22:59:53.224Z,99213.78
2023-10-29T23:02:20.895Z,99208.03
2023-10-29T23:04:48.551Z,99224.50
2023-10-29T23:07:17.615Z,99223.59
2023-10-29T23:09:45.242Z,99228.47
2023-10-29T23:12:13.163Z,99214.34
2023-10-29T23:14:40.930Z,99222.78
2023-10-29T23:17:08.726Z,99224.38
2023-10-29T23:19:36.513Z,99230.81
2023-10-29T23:22:04.731Z,99235.44
2023-10-29T23:24:36.591Z,99228.25
2023-10-29T23:27:06.028Z,99224.69
2023-10-29T23:29:34.374Z,99214.47
2023-10-29T23:32:03.302Z,99201.31
2023-10-29T23:34:31.182Z,99185.09
2023-10-29T23:36:58.818Z,99166.47
2023-10-29T23:39:28.292Z,99154.09
2023-10-29T23:41:57.736Z,99133.28
2023-10-29T23:44:25.415Z,99107.31
2023-10-29T23:46:53.068Z,99091.25
2023-10-29T23:49:20.728Z,99074.38
2023-10-29T23:51:48.436Z,99066.41
2023-10-29T23:54:16.114Z,99045.84
2023-10-29T23:56:43.739Z,99027.59
2023-10-29T23:59:12.679Z,99019.34
